Time;durP1;ratioP1;P1;durP2;ratioP2;P2;SDS_P1;SDS_P2;PMS_P1;PMS_P2;Temp;Humidity;BMP_temperature;BMP_pressure;BME280_temperature;BME280_humidity;BME280_pressure;Samples;Min_cycle;Max_cycle;Signal;HPM_P1;HPM_P2
2022/07/05 00:00:21;;;;;;;3.97;2.27;;;;;;;;;;4961990;28;20218;-81
2022/07/05 00:02:49;;;;;;;3.20;1.93;;;;;;;;;;4955439;28;20332;-81
2022/07/05 00:05:18;;;;;;;4.27;1.90;;;;;;;;;;4964532;28;20734;-81
2022/07/05 00:08:05;;;;;;;5.17;2.50;;;;;;;;;;4961540;28;20292;-81
2022/07/05 00:10:34;;;;;;;2.70;2.10;;;;;;;;;;4957649;28;20222;-82
2022/07/05 00:13:04;;;;;;;4.17;2.50;;;;;;;;;;4958088;28;20249;-82
2022/07/05 00:15:44;;;;;;;3.83;2.30;;;;;;;;;;4962911;28;20198;-81
2022/07/05 00:18:11;;;;;;;6.63;2.73;;;;;;;;;;4956772;28;20631;-81
2022/07/05 00:20:48;;;;;;;6.10;2.60;;;;;;;;;;4963875;28;20205;-83
2022/07/05 00:23:18;;;;;;;7.27;2.70;;;;;;;;;;4957955;28;20231;-81
2022/07/05 00:26:00;;;;;;;4.00;2.57;;;;;;;;;;4961072;28;20633;-82
2022/07/05 00:28:30;;;;;;;6.40;2.60;;;;;;;;;;4957321;28;20230;-82
2022/07/05 00:30:58;;;;;;;3.40;2.10;;;;;;;;;;4955747;28;20206;-81
2022/07/05 00:33:28;;;;;;;3.70;2.60;;;;;;;;;;4956827;28;20237;-81
2022/07/05 00:35:58;;;;;;;14.87;2.47;;;;;;;;;;4959123;28;20206;-82
2022/07/05 00:38:42;;;;;;;6.47;2.20;;;;;;;;;;4960241;28;20233;-81
2022/07/05 00:41:14;;;;;;;7.53;2.10;;;;;;;;;;4959772;28;20729;-82
2022/07/05 00:43:54;;;;;;;3.37;2.40;;;;;;;;;;4959922;28;20285;-81
2022/07/05 00:46:34;;;;;;;3.80;2.43;;;;;;;;;;4958043;28;20665;-82
2022/07/05 00:49:02;;;;;;;7.23;2.40;;;;;;;;;;4955525;28;20213;-82
2022/07/05 00:51:31;;;;;;;7.77;2.20;;;;;;;;;;4962823;28;20202;-82
2022/07/05 00:54:02;;;;;;;3.70;2.30;;;;;;;;;;4958349;28;20289;-81
2022/07/05 00:56:31;;;;;;;4.20;2.20;;;;;;;;;;4959729;28;20241;-82
2022/07/05 00:59:11;;;;;;;5.87;2.47;;;;;;;;;;4951742;28;20289;-81
2022/07/05 01:01:38;;;;;;;4.67;2.43;;;;;;;;;;4962040;28;20228;-82
2022/07/05 01:04:05;;;;;;;4.03;2.57;;;;;;;;;;4956655;28;20241;-81
2022/07/05 01:09:20;;;;;;;5.37;2.87;;;;;;;;;;4960094;28;20252;-82
2022/07/05 01:11:49;;;;;;;6.50;2.90;;;;;;;;;;4956656;28;20208;-83
2022/07/05 01:14:19;;;;;;;5.53;2.70;;;;;;;;;;4963489;28;20229;-81
2022/07/05 01:16:47;;;;;;;7.70;3.17;;;;;;;;;;4962602;28;20296;-81
2022/07/05 01:19:17;;;;;;;8.73;2.50;;;;;;;;;;4963098;28;20218;-81
2022/07/05 01:21:54;;;;;;;6.03;2.70;;;;;;;;;;4961254;28;20210;-83
2022/07/05 01:24:32;;;;;;;5.60;2.20;;;;;;;;;;4959947;28;20322;-84
2022/07/05 01:27:00;;;;;;;2.90;2.50;;;;;;;;;;4962242;28;20666;-84
2022/07/05 01:29:31;;;;;;;4.83;2.40;;;;;;;;;;4948774;28;20281;-84
2022/07/05 01:31:59;;;;;;;4.40;2.40;;;;;;;;;;4957544;28;20312;-83
2022/07/05 01:34:37;;;;;;;4.17;2.60;;;;;;;;;;4955054;28;20258;-83
2022/07/05 01:37:05;;;;;;;3.00;2.50;;;;;;;;;;4962219;28;20626;-83
2022/07/05 01:39:34;;;;;;;4.37;2.80;;;;;;;;;;4954979;28;20211;-83
2022/07/05 01:42:02;;;;;;;4.77;2.80;;;;;;;;;;4958723;28;20214;-83
2022/07/05 01:44:30;;;;;;;4.57;2.50;;;;;;;;;;4961013;28;20226;-84
2022/07/05 01:47:00;;;;;;;8.97;3.10;;;;;;;;;;4958847;28;20214;-82
2022/07/05 01:49:28;;;;;;;4.97;3.00;;;;;;;;;;4962415;28;20265;-84
2022/07/05 01:52:07;;;;;;;5.60;2.87;;;;;;;;;;4959796;28;20210;-83
2022/07/05 01:54:36;;;;;;;5.50;3.00;;;;;;;;;;4954894;28;20690;-85
2022/07/05 01:57:09;;;;;;;4.33;2.90;;;;;;;;;;4961755;28;20215;-83
2022/07/05 01:59:48;;;;;;;7.43;2.90;;;;;;;;;;4955104;28;20198;-84
2022/07/05 02:02:16;;;;;;;6.27;2.70;;;;;;;;;;4959270;28;20211;-84
2022/07/05 02:04:46;;;;;;;8.20;3.00;;;;;;;;;;4954847;28;20226;-84
2022/07/05 02:07:13;;;;;;;7.20;2.93;;;;;;;;;;4950098;28;20211;-84
2022/07/05 02:09:51;;;;;;;6.93;3.20;;;;;;;;;;4947657;28;20258;-84
2022/07/05 02:12:38;;;;;;;5.03;3.10;;;;;;;;;;4956698;28;20222;-84
2022/07/05 02:15:08;;;;;;;4.00;2.67;;;;;;;;;;4950653;28;20908;-84
2022/07/05 02:17:35;;;;;;;4.97;2.67;;;;;;;;;;4953103;28;20229;-84
2022/07/05 02:20:03;;;;;;;6.03;2.57;;;;;;;;;;4959818;28;20636;-83
2022/07/05 02:22:30;;;;;;;5.93;2.73;;;;;;;;;;4954430;28;20237;-83
2022/07/05 02:24:59;;;;;;;5.37;2.80;;;;;;;;;;4957616;28;20232;-84
2022/07/05 02:27:26;;;;;;;4.60;2.60;;;;;;;;;;4956701;28;20215;-83
2022/07/05 02:29:57;;;;;;;9.43;3.13;;;;;;;;;;4959726;28;20210;-83
2022/07/05 02:32:24;;;;;;;3.60;2.53;;;;;;;;;;4957513;28;20212;-84
2022/07/05 02:34:57;;;;;;;3.83;2.60;;;;;;;;;;4953258;28;20667;-81
2022/07/05 02:37:24;;;;;;;3.73;2.83;;;;;;;;;;4956293;28;20718;-81
2022/07/05 02:39:52;;;;;;;3.73;2.70;;;;;;;;;;4963980;28;20274;-82
2022/07/05 02:42:22;;;;;;;6.13;3.00;;;;;;;;;;4957249;28;20275;-82
2022/07/05 02:44:57;;;;;;;7.17;2.60;;;;;;;;;;4959724;28;20625;-82
2022/07/05 02:47:24;;;;;;;7.50;2.90;;;;;;;;;;4960795;28;20233;-82
2022/07/05 02:49:53;;;;;;;4.57;2.60;;;;;;;;;;4964559;28;20210;-81
2022/07/05 02:52:20;;;;;;;5.60;3.10;;;;;;;;;;4966513;28;20238;-81
2022/07/05 02:55:00;;;;;;;4.53;2.70;;;;;;;;;;4964941;28;20207;-80
2022/07/05 02:57:29;;;;;;;5.03;2.70;;;;;;;;;;4961151;28;20230;-80
2022/07/05 03:00:04;;;;;;;6.70;3.00;;;;;;;;;;4966219;28;20211;-81
2022/07/05 03:02:40;;;;;;;8.67;3.13;;;;;;;;;;4958518;28;20655;-82
2022/07/05 03:05:09;;;;;;;7.90;3.00;;;;;;;;;;4951783;28;20276;-82
2022/07/05 03:07:37;;;;;;;6.93;2.90;;;;;;;;;;4956211;28;20214;-82
2022/07/05 03:10:04;;;;;;;4.87;3.13;;;;;;;;;;4956887;28;21080;-81
2022/07/05 03:12:46;;;;;;;7.83;2.80;;;;;;;;;;4956730;28;20253;-82
2022/07/05 03:15:26;;;;;;;5.60;3.20;;;;;;;;;;4958626;28;20214;-82
2022/07/05 03:18:17;;;;;;;7.60;3.03;;;;;;;;;;4958443;28;20858;-82
2022/07/05 03:23:28;;;;;;;3.80;2.83;;;;;;;;;;4963666;28;20234;-81
2022/07/05 03:25:56;;;;;;;5.30;3.10;;;;;;;;;;4967717;28;20229;-81
2022/07/05 03:28:25;;;;;;;5.77;3.20;;;;;;;;;;4960264;28;20215;-82
2022/07/05 03:33:51;;;;;;;4.63;3.00;;;;;;;;;;4947538;28;20637;-82
2022/07/05 03:42:27;;;;;;;7.20;3.07;;;;;;;;;;4952536;28;20601;-82
2022/07/05 03:44:56;;;;;;;5.40;3.17;;;;;;;;;;4950958;28;20310;-82
2022/07/05 03:47:23;;;;;;;7.90;3.07;;;;;;;;;;4958035;28;20210;-82
2022/07/05 03:50:00;;;;;;;;;;;;;;;;;;;;;
2022/07/05 03:52:28;;;;;;;4.20;2.90;;;;;;;;;;4956862;28;20655;-82
2022/07/05 03:55:01;;;;;;;3.60;3.00;;;;;;;;;;4956602;28;20202;-82
2022/07/05 04:00:30;;;;;;;5.97;2.90;;;;;;;;;;4954351;28;20217;-82
2022/07/05 04:02:57;;;;;;;7.53;3.07;;;;;;;;;;4958348;28;20238;-82
2022/07/05 04:05:24;;;;;;;6.37;2.70;;;;;;;;;;4958582;28;20251;-82
2022/07/05 04:07:52;;;;;;;8.83;2.63;;;;;;;;;;4957783;28;20210;-82
2022/07/05 04:10:19;;;;;;;10.83;2.20;;;;;;;;;;4959515;28;20210;-82
2022/07/05 04:12:47;;;;;;;9.67;2.53;;;;;;;;;;4961615;28;21266;-82
2022/07/05 04:15:15;;;;;;;13.77;2.60;;;;;;;;;;4961337;28;20202;-81
2022/07/05 04:17:52;;;;;;;5.20;2.40;;;;;;;;;;4963009;28;20210;-82
2022/07/05 04:20:21;;;;;;;5.83;2.30;;;;;;;;;;4957748;28;20293;-82
2022/07/05 04:22:48;;;;;;;5.40;2.27;;;;;;;;;;4960411;28;20354;-81
2022/07/05 04:25:18;;;;;;;5.53;2.40;;;;;;;;;;4964110;28;20222;-81
2022/07/05 04:27:46;;;;;;;6.27;2.27;;;;;;;;;;4962412;28;20950;-82
2022/07/05 04:30:14;;;;;;;12.03;2.37;;;;;;;;;;4969500;28;20213;-81
2022/07/05 04:32:41;;;;;;;8.70;2.30;;;;;;;;;;4960612;28;20225;-82
2022/07/05 04:35:10;;;;;;;17.97;3.07;;;;;;;;;;4963582;28;20210;-81
2022/07/05 04:37:38;;;;;;;17.53;3.10;;;;;;;;;;4959294;28;20218;-82
2022/07/05 04:40:09;;;;;;;39.07;3.97;;;;;;;;;;4958730;28;20210;-81
2022/07/05 04:42:38;;;;;;;48.47;5.20;;;;;;;;;;4965558;28;20230;-81
2022/07/05 04:45:13;;;;;;;29.40;4.37;;;;;;;;;;4965913;28;20288;-82
2022/07/05 04:47:51;;;;;;;35.20;4.13;;;;;;;;;;4964586;28;20216;-80
2022/07/05 04:50:24;;;;;;;27.43;4.03;;;;;;;;;;4963883;28;20242;-82
2022/07/05 04:52:51;;;;;;;24.80;3.30;;;;;;;;;;4963840;28;20272;-81
2022/07/05 04:55:18;;;;;;;27.43;3.07;;;;;;;;;;4966776;28;21016;-82
2022/07/05 04:57:46;;;;;;;10.10;2.53;;;;;;;;;;4964944;28;20207;-80
2022/07/05 05:00:17;;;;;;;13.90;2.57;;;;;;;;;;4961599;28;20225;-81
2022/07/05 05:02:45;;;;;;;18.67;2.50;;;;;;;;;;4961534;28;20273;-81
2022/07/05 05:05:12;;;;;;;9.50;2.40;;;;;;;;;;4962249;28;20230;-80
2022/07/05 05:07:46;;;;;;;12.63;2.57;;;;;;;;;;4960075;28;20210;-81
2022/07/05 05:10:14;;;;;;;6.77;2.50;;;;;;;;;;4960693;28;20213;-82
2022/07/05 05:12:44;;;;;;;7.07;2.83;;;;;;;;;;4950260;28;20718;-83
2022/07/05 05:15:11;;;;;;;5.30;2.70;;;;;;;;;;4958743;28;20208;-83
2022/07/05 05:17:40;;;;;;;5.00;2.53;;;;;;;;;;4955914;28;20206;-83
2022/07/05 05:20:09;;;;;;;7.53;2.40;;;;;;;;;;4954096;28;20202;-83
2022/07/05 05:22:37;;;;;;;3.67;2.13;;;;;;;;;;4956205;28;20218;-82
2022/07/05 05:25:12;;;;;;;5.50;2.23;;;;;;;;;;4953664;28;20239;-82
2022/07/05 05:28:10;;;;;;;6.57;2.30;;;;;;;;;;4960612;28;20194;-82
2022/07/05 05:30:38;;;;;;;5.40;2.30;;;;;;;;;;4958252;28;20217;-80
2022/07/05 05:33:05;;;;;;;7.97;2.17;;;;;;;;;;4958535;28;20254;-82
2022/07/05 05:35:33;;;;;;;4.23;1.97;;;;;;;;;;4960049;28;20214;-83
2022/07/05 05:38:00;;;;;;;4.20;1.87;;;;;;;;;;4962923;28;20624;-83
2022/07/05 05:40:30;;;;;;;4.93;2.00;;;;;;;;;;4960207;28;20237;-83
2022/07/05 05:42:59;;;;;;;7.70;2.40;;;;;;;;;;4960118;28;20238;-82
2022/07/05 05:45:27;;;;;;;6.20;1.87;;;;;;;;;;4962259;28;20694;-83
2022/07/05 05:47:55;;;;;;;3.83;2.10;;;;;;;;;;4962555;28;20242;-82
2022/07/05 05:50:32;;;;;;;2.97;1.80;;;;;;;;;;4958668;28;20211;-83
2022/07/05 05:53:13;;;;;;;2.73;1.70;;;;;;;;;;4962134;28;20252;-82
2022/07/05 05:55:42;;;;;;;4.93;1.80;;;;;;;;;;4961458;28;20213;-81
2022/07/05 06:01:17;;;;;;;6.40;2.00;;;;;;;;;;4944093;28;20217;-83
2022/07/05 06:04:16;;;;;;;3.27;1.83;;;;;;;;;;4957225;28;20222;-83
2022/07/05 06:06:43;;;;;;;3.73;1.90;;;;;;;;;;4960814;28;20325;-83
2022/07/05 06:09:11;;;;;;;4.97;1.90;;;;;;;;;;4960393;28;20607;-82
2022/07/05 06:11:42;;;;;;;3.57;1.70;;;;;;;;;;4964803;28;20214;-81
2022/07/05 06:14:11;;;;;;;11.43;1.70;;;;;;;;;;4972890;28;20222;-81
2022/07/05 06:16:40;;;;;;;5.20;1.90;;;;;;;;;;4979452;28;20217;-82
2022/07/05 06:19:15;;;;;;;4.87;2.00;;;;;;;;;;4971978;28;20206;-83
2022/07/05 06:21:46;;;;;;;4.30;1.97;;;;;;;;;;4967298;28;20265;-82
2022/07/05 06:24:18;;;;;;;5.10;2.03;;;;;;;;;;4967645;28;20235;-82
2022/07/05 06:26:47;;;;;;;3.97;2.00;;;;;;;;;;4970693;28;20219;-82
2022/07/05 06:29:17;;;;;;;3.77;1.67;;;;;;;;;;4971566;28;20215;-81
2022/07/05 06:31:56;;;;;;;4.67;1.80;;;;;;;;;;4978443;28;20216;-83
2022/07/05 06:34:30;;;;;;;4.03;1.90;;;;;;;;;;4968627;28;20233;-82
2022/07/05 06:36:57;;;;;;;3.80;1.80;;;;;;;;;;4968709;28;20297;-82
2022/07/05 06:39:26;;;;;;;3.63;1.73;;;;;;;;;;4961413;28;20225;-82
2022/07/05 06:41:55;;;;;;;7.70;1.90;;;;;;;;;;4969658;28;20211;-82
2022/07/05 06:44:24;;;;;;;5.20;1.70;;;;;;;;;;4970280;28;20236;-81
2022/07/05 06:46:52;;;;;;;5.97;1.73;;;;;;;;;;4967789;28;20231;-82
2022/07/05 06:49:38;;;;;;;7.23;1.70;;;;;;;;;;4970638;28;20217;-83
2022/07/05 06:52:11;;;;;;;4.43;1.90;;;;;;;;;;4965699;28;20269;-83
2022/07/05 06:54:39;;;;;;;5.20;1.80;;;;;;;;;;4963684;28;20211;-82
2022/07/05 06:57:08;;;;;;;4.47;1.63;;;;;;;;;;4969824;28;20331;-83
2022/07/05 06:59:38;;;;;;;5.43;1.50;;;;;;;;;;4958935;28;20218;-83
2022/07/05 07:02:19;;;;;;;5.90;1.70;;;;;;;;;;4960108;28;20225;-83
2022/07/05 07:04:46;;;;;;;5.17;1.50;;;;;;;;;;4957851;28;20214;-83
2022/07/05 07:10:08;;;;;;;5.13;1.60;;;;;;;;;;4960502;28;20218;-83
2022/07/05 07:12:41;;;;;;;3.90;1.30;;;;;;;;;;4956348;28;20250;-83
2022/07/05 07:15:13;;;;;;;4.33;1.43;;;;;;;;;;4955309;28;20226;-83
2022/07/05 07:17:44;;;;;;;5.50;1.50;;;;;;;;;;4956525;28;20455;-83
2022/07/05 07:20:16;;;;;;;5.33;1.60;;;;;;;;;;4959471;28;20230;-84
2022/07/05 07:22:43;;;;;;;5.50;1.50;;;;;;;;;;4961733;28;20628;-84
2022/07/05 07:25:17;;;;;;;4.68;1.52;;;;;;;;;;4961962;28;20210;-84
2022/07/05 07:27:55;;;;;;;3.60;1.27;;;;;;;;;;4964589;28;20239;-84
2022/07/05 07:30:24;;;;;;;3.63;1.30;;;;;;;;;;4959020;28;20206;-85
2022/07/05 07:32:51;;;;;;;6.43;1.27;;;;;;;;;;4967619;28;20229;-84
2022/07/05 07:35:19;;;;;;;3.17;1.50;;;;;;;;;;4960990;28;20266;-84
2022/07/05 07:37:47;;;;;;;2.30;1.17;;;;;;;;;;4970222;28;20207;-84
2022/07/05 07:40:15;;;;;;;6.47;1.60;;;;;;;;;;4961330;28;20216;-83
2022/07/05 07:42:51;;;;;;;3.15;1.25;;;;;;;;;;4961326;28;20767;-84
2022/07/05 07:45:20;;;;;;;10.63;1.50;;;;;;;;;;4962918;28;20212;-84
2022/07/05 07:48:00;;;;;;;5.07;1.40;;;;;;;;;;4959310;28;20226;-84
2022/07/05 07:50:28;;;;;;;8.40;1.65;;;;;;;;;;4943209;28;20710;-84
2022/07/05 07:52:56;;;;;;;2.83;1.40;;;;;;;;;;4960516;28;20235;-84
2022/07/05 07:55:40;;;;;;;5.65;1.60;;;;;;;;;;4966967;28;20207;-84
2022/07/05 08:00:59;;;;;;;4.88;1.90;;;;;;;;;;4968244;28;20207;-85
2022/07/05 08:03:27;;;;;;;4.25;1.60;;;;;;;;;;4962247;28;20233;-84
2022/07/05 08:05:54;;;;;;;3.53;1.50;;;;;;;;;;4956541;28;20305;-84
2022/07/05 08:08:22;;;;;;;4.45;1.30;;;;;;;;;;4963414;28;20230;-83
2022/07/05 08:10:49;;;;;;;3.72;1.35;;;;;;;;;;4966419;28;20214;-83
2022/07/05 08:13:20;;;;;;;5.70;1.55;;;;;;;;;;4969366;28;20253;-84
2022/07/05 08:15:47;;;;;;;5.45;1.70;;;;;;;;;;4966183;28;20257;-83
2022/07/05 08:24:00;;;;;;;5.77;1.80;;;;;;;;;;4914060;29;20223;-82
2022/07/05 08:26:31;;;;;;;4.82;1.30;;;;;;;;;;4915772;29;20223;-82
2022/07/05 08:28:59;;;;;;;3.08;1.60;;;;;;;;;;4932725;28;20202;-83
2022/07/05 08:31:27;;;;;;;5.93;1.90;;;;;;;;;;4956487;28;20256;-83
2022/07/05 08:33:58;;;;;;;4.30;1.50;;;;;;;;;;4958891;28;20243;-83
2022/07/05 08:36:32;;;;;;;6.18;1.55;;;;;;;;;;4960770;28;20249;-83
2022/07/05 08:41:52;;;;;;;4.82;1.92;;;;;;;;;;4956519;28;20208;-83
2022/07/05 08:44:26;;;;;;;3.90;2.03;;;;;;;;;;4960818;28;20261;-84
2022/07/05 08:46:58;;;;;;;5.73;2.40;;;;;;;;;;4958836;28;20230;-83
2022/07/05 08:49:29;;;;;;;3.97;2.10;;;;;;;;;;4959021;28;20574;-83
2022/07/05 08:51:59;;;;;;;5.43;2.20;;;;;;;;;;4960469;28;20206;-81
2022/07/05 08:54:27;;;;;;;5.63;1.93;;;;;;;;;;4960367;28;20308;-83
2022/07/05 08:56:59;;;;;;;3.97;2.10;;;;;;;;;;4961140;28;20246;-82
2022/07/05 08:59:29;;;;;;;5.43;2.80;;;;;;;;;;4965811;28;20217;-81
2022/07/05 09:02:01;;;;;;;5.60;2.70;;;;;;;;;;4960749;28;20211;-82
2022/07/05 09:04:31;;;;;;;5.83;2.20;;;;;;;;;;4963343;28;20233;-83
2022/07/05 09:07:01;;;;;;;7.43;2.37;;;;;;;;;;4966656;28;20242;-83
2022/07/05 09:09:32;;;;;;;5.43;2.40;;;;;;;;;;4968534;28;20214;-82
2022/07/05 09:12:01;;;;;;;3.87;2.00;;;;;;;;;;4962760;28;20221;-83
2022/07/05 09:14:29;;;;;;;4.97;2.70;;;;;;;;;;4967529;28;20689;-83
2022/07/05 09:16:58;;;;;;;7.57;2.70;;;;;;;;;;4966396;28;20667;-83
2022/07/05 09:19:25;;;;;;;5.23;2.00;;;;;;;;;;4963533;28;20625;-82
2022/07/05 09:22:04;;;;;;;12.73;2.60;;;;;;;;;;4963096;28;20242;-82
2022/07/05 09:24:31;;;;;;;5.83;2.57;;;;;;;;;;4963371;28;20312;-81
2022/07/05 09:27:08;;;;;;;4.53;2.17;;;;;;;;;;4958601;28;20265;-81
2022/07/05 09:29:35;;;;;;;6.47;2.50;;;;;;;;;;4969423;28;20211;-81
2022/07/05 09:32:02;;;;;;;6.00;2.67;;;;;;;;;;4964040;28;20955;-82
2022/07/05 09:34:34;;;;;;;4.87;2.20;;;;;;;;;;4965999;28;20249;-80
2022/07/05 09:37:07;;;;;;;5.13;2.40;;;;;;;;;;4962248;28;20288;-81
2022/07/05 09:39:41;;;;;;;6.13;2.50;;;;;;;;;;4971736;28;20288;-81
2022/07/05 09:42:23;;;;;;;6.00;2.40;;;;;;;;;;4966512;28;20210;-81
2022/07/05 09:44:54;;;;;;;5.47;2.20;;;;;;;;;;4965605;28;20208;-81
2022/07/05 09:47:24;;;;;;;3.87;2.30;;;;;;;;;;4959318;28;20288;-82
2022/07/05 09:49:52;;;;;;;4.87;2.10;;;;;;;;;;4969884;28;20213;-82
2022/07/05 09:52:31;;;;;;;6.57;2.33;;;;;;;;;;4966968;28;20213;-83
2022/07/05 09:55:08;;;;;;;4.07;2.60;;;;;;;;;;4970561;28;20372;-83
2022/07/05 09:57:36;;;;;;;6.13;2.50;;;;;;;;;;4975535;28;21009;-82
2022/07/05 10:00:05;;;;;;;5.30;2.23;;;;;;;;;;4970094;28;20216;-82
2022/07/05 10:05:20;;;;;;;6.47;2.70;;;;;;;;;;4968267;28;20212;-81
2022/07/05 10:07:50;;;;;;;6.37;3.03;;;;;;;;;;4964535;28;20314;-83
2022/07/05 10:10:18;;;;;;;5.23;2.30;;;;;;;;;;4967505;28;20216;-80
2022/07/05 10:12:46;;;;;;;9.80;2.40;;;;;;;;;;4966121;28;20299;-82
2022/07/05 10:15:15;;;;;;;5.23;2.00;;;;;;;;;;4967108;28;20208;-81
2022/07/05 10:17:44;;;;;;;3.83;2.20;;;;;;;;;;4965030;28;20205;-81
2022/07/05 10:20:17;;;;;;;6.23;2.30;;;;;;;;;;4968648;28;20210;-82
2022/07/05 10:22:50;;;;;;;4.03;2.00;;;;;;;;;;4959804;28;20288;-81
2022/07/05 10:25:19;;;;;;;6.63;2.53;;;;;;;;;;4964763;28;20205;-81
2022/07/05 10:27:47;;;;;;;4.73;2.10;;;;;;;;;;4968296;28;20712;-81
2022/07/05 10:30:17;;;;;;;5.10;2.10;;;;;;;;;;4969164;28;20235;-82
2022/07/05 10:32:44;;;;;;;4.83;2.53;;;;;;;;;;4965917;28;20239;-82
2022/07/05 10:35:14;;;;;;;4.30;2.50;;;;;;;;;;4961594;28;21064;-82
2022/07/05 10:37:42;;;;;;;4.70;2.10;;;;;;;;;;4965613;28;20697;-81
2022/07/05 10:40:16;;;;;;;3.70;1.90;;;;;;;;;;4960192;28;20798;-80
2022/07/05 10:42:47;;;;;;;4.50;1.97;;;;;;;;;;4957565;28;20227;-81
2022/07/05 10:45:30;;;;;;;2.63;1.43;;;;;;;;;;4957623;28;20233;-82
2022/07/05 10:48:19;;;;;;;7.40;1.80;;;;;;;;;;4963765;28;20249;-81
2022/07/05 10:50:56;;;;;;;3.27;1.73;;;;;;;;;;4952990;28;20210;-82
2022/07/05 10:53:24;;;;;;;3.03;1.80;;;;;;;;;;4956415;28;20289;-83
2022/07/05 10:55:52;;;;;;;3.40;1.60;;;;;;;;;;4963777;28;20206;-82
2022/07/05 10:58:24;;;;;;;3.80;1.50;;;;;;;;;;4962924;28;20226;-83
2022/07/05 11:01:08;;;;;;;2.30;1.47;;;;;;;;;;4960017;28;20249;-81
2022/07/05 11:03:39;;;;;;;2.90;1.60;;;;;;;;;;4957733;28;20227;-82
2022/07/05 11:06:10;;;;;;;5.67;2.30;;;;;;;;;;4963114;28;20284;-83
2022/07/05 11:08:52;;;;;;;5.93;2.13;;;;;;;;;;4963834;28;20226;-83
2022/07/05 11:11:24;;;;;;;4.17;2.33;;;;;;;;;;4962942;28;20220;-83
2022/07/05 11:13:54;;;;;;;3.13;1.93;;;;;;;;;;4964550;28;20264;-84
2022/07/05 11:16:22;;;;;;;4.40;1.90;;;;;;;;;;4968249;28;20752;-82
2022/07/05 11:19:00;;;;;;;5.17;2.10;;;;;;;;;;4964142;28;20206;-83
2022/07/05 11:21:28;;;;;;;4.13;1.90;;;;;;;;;;4960605;28;20199;-82
2022/07/05 11:24:15;;;;;;;2.53;2.00;;;;;;;;;;4960446;28;20265;-83
2022/07/05 11:26:44;;;;;;;3.63;2.00;;;;;;;;;;4960717;28;20238;-82
2022/07/05 11:29:41;;;;;;;6.00;2.10;;;;;;;;;;4960653;28;20649;-82
2022/07/05 11:32:10;;;;;;;4.33;2.17;;;;;;;;;;4961276;28;20262;-83
2022/07/05 11:34:37;;;;;;;5.63;2.00;;;;;;;;;;4960821;28;20241;-82
2022/07/05 11:37:23;;;;;;;5.13;1.93;;;;;;;;;;4962839;28;20209;-83
2022/07/05 11:40:16;;;;;;;5.10;1.60;;;;;;;;;;4963859;28;20292;-84
2022/07/05 11:42:48;;;;;;;3.53;1.70;;;;;;;;;;4960837;28;20238;-81
2022/07/05 11:45:17;;;;;;;4.60;1.60;;;;;;;;;;4962971;28;20301;-81
2022/07/05 11:47:44;;;;;;;3.53;1.70;;;;;;;;;;4966098;28;20248;-82
2022/07/05 11:50:13;;;;;;;2.57;1.57;;;;;;;;;;4958194;28;20219;-82
2022/07/05 11:52:41;;;;;;;4.03;1.87;;;;;;;;;;4960567;28;20221;-81
2022/07/05 11:55:11;;;;;;;4.27;1.67;;;;;;;;;;4956853;28;20203;-81
2022/07/05 11:57:39;;;;;;;6.23;1.80;;;;;;;;;;4955397;28;20225;-82
2022/07/05 12:00:07;;;;;;;3.10;1.60;;;;;;;;;;4954306;28;20731;-82
2022/07/05 12:02:46;;;;;;;2.40;1.50;;;;;;;;;;4952591;28;20245;-82
2022/07/05 12:05:17;;;;;;;5.23;1.53;;;;;;;;;;4954149;28;20237;-82
2022/07/05 12:07:57;;;;;;;3.17;1.40;;;;;;;;;;4951672;28;20680;-81
2022/07/05 12:16:01;;;;;;;2.87;1.10;;;;;;;;;;4954489;28;20331;-82
2022/07/05 12:18:32;;;;;;;1.87;1.20;;;;;;;;;;4956670;28;20260;-82
2022/07/05 12:21:05;;;;;;;2.73;1.40;;;;;;;;;;4955877;28;20273;-82
2022/07/05 12:23:32;;;;;;;3.53;1.40;;;;;;;;;;4954118;28;20284;-83
2022/07/05 12:26:02;;;;;;;3.47;1.40;;;;;;;;;;4958005;28;20218;-82
2022/07/05 12:28:30;;;;;;;3.63;1.30;;;;;;;;;;4956559;28;20269;-82
2022/07/05 12:30:58;;;;;;;2.80;1.47;;;;;;;;;;4962631;28;20211;-82
2022/07/05 12:33:43;;;;;;;2.07;1.30;;;;;;;;;;4957538;28;20226;-81
2022/07/05 12:36:14;;;;;;;2.83;1.40;;;;;;;;;;4959123;28;20216;-81
2022/07/05 12:38:46;;;;;;;1.40;1.30;;;;;;;;;;4961146;28;20319;-81
2022/07/05 12:41:23;;;;;;;2.20;1.20;;;;;;;;;;4961690;28;20213;-82
2022/07/05 12:44:01;;;;;;;2.77;1.20;;;;;;;;;;4957945;28;20669;-82
2022/07/05 12:46:44;;;;;;;2.30;1.43;;;;;;;;;;4958509;28;20237;-82
2022/07/05 12:49:11;;;;;;;2.87;1.23;;;;;;;;;;4959796;28;20313;-83
2022/07/05 12:51:41;;;;;;;5.90;1.17;;;;;;;;;;4958402;28;20286;-82
2022/07/05 12:59:59;;;;;;;5.33;1.20;;;;;;;;;;4960604;28;20284;-82
2022/07/05 13:02:37;;;;;;;3.13;1.40;;;;;;;;;;4958801;28;20221;-83
2022/07/05 13:05:05;;;;;;;2.27;1.13;;;;;;;;;;4957287;28;20216;-84
2022/07/05 13:07:42;;;;;;;2.20;1.17;;;;;;;;;;4960082;28;20229;-83
2022/07/05 13:10:22;;;;;;;3.80;1.40;;;;;;;;;;4958601;28;20823;-82
2022/07/05 13:12:49;;;;;;;9.17;1.50;;;;;;;;;;4957904;28;20229;-82
2022/07/05 13:18:02;;;;;;;3.37;1.60;;;;;;;;;;4963702;28;20212;-81
2022/07/05 13:20:30;;;;;;;4.03;1.20;;;;;;;;;;4962749;28;20209;-82
2022/07/05 13:22:58;;;;;;;1.47;1.10;;;;;;;;;;4960308;28;20320;-81
2022/07/05 13:25:45;;;;;;;4.07;1.40;;;;;;;;;;4963058;28;20230;-81
2022/07/05 13:28:13;;;;;;;2.50;1.27;;;;;;;;;;4959206;28;20235;-81
2022/07/05 13:30:44;;;;;;;2.30;1.17;;;;;;;;;;4962445;28;20235;-81
2022/07/05 13:33:12;;;;;;;2.77;1.17;;;;;;;;;;4963481;28;20236;-81
2022/07/05 13:35:39;;;;;;;2.63;1.30;;;;;;;;;;4964376;28;20721;-81
2022/07/05 13:38:08;;;;;;;1.77;1.30;;;;;;;;;;4959827;28;20234;-81
2022/07/05 13:40:45;;;;;;;2.23;1.40;;;;;;;;;;4959823;28;20240;-80
2022/07/05 13:43:13;;;;;;;4.00;1.20;;;;;;;;;;4959871;28;20228;-81
2022/07/05 13:45:41;;;;;;;2.30;1.23;;;;;;;;;;4971077;28;20222;-82
2022/07/05 13:48:09;;;;;;;4.43;1.37;;;;;;;;;;4973562;28;20252;-83
2022/07/05 13:50:45;;;;;;;1.40;1.20;;;;;;;;;;4971704;28;20210;-80
2022/07/05 13:53:14;;;;;;;3.03;1.50;;;;;;;;;;4966361;28;20235;-81
2022/07/05 13:55:45;;;;;;;1.90;1.37;;;;;;;;;;4964477;28;20217;-81
2022/07/05 13:58:12;;;;;;;3.17;1.40;;;;;;;;;;4967448;28;20335;-82
2022/07/05 14:00:40;;;;;;;2.30;1.20;;;;;;;;;;4963135;28;20213;-82
2022/07/05 14:03:08;;;;;;;4.33;1.40;;;;;;;;;;4960848;28;20908;-83
2022/07/05 14:05:38;;;;;;;4.07;1.37;;;;;;;;;;4964096;28;20217;-82
2022/07/05 14:08:09;;;;;;;6.67;1.67;;;;;;;;;;4961738;28;20233;-81
2022/07/05 14:10:40;;;;;;;3.30;1.40;;;;;;;;;;4961640;28;20218;-81
2022/07/05 14:13:15;;;;;;;3.57;1.30;;;;;;;;;;4955877;28;20775;-82
2022/07/05 14:15:43;;;;;;;2.47;1.30;;;;;;;;;;4964747;28;20210;-83
2022/07/05 14:18:13;;;;;;;4.40;1.40;;;;;;;;;;4967610;28;20273;-81
2022/07/05 14:20:40;;;;;;;6.07;1.73;;;;;;;;;;4959638;28;20271;-81
2022/07/05 14:23:10;;;;;;;2.00;1.30;;;;;;;;;;4959174;28;20235;-81
2022/07/05 14:25:39;;;;;;;4.10;1.57;;;;;;;;;;4960474;28;20215;-81
2022/07/05 14:28:09;;;;;;;5.43;1.93;;;;;;;;;;4961346;28;20223;-80
2022/07/05 14:30:36;;;;;;;4.40;1.70;;;;;;;;;;4960841;28;20233;-81
2022/07/05 14:33:04;;;;;;;4.50;1.83;;;;;;;;;;4959386;28;20234;-80
2022/07/05 14:35:35;;;;;;;2.77;1.77;;;;;;;;;;4961354;28;20199;-80
2022/07/05 14:38:02;;;;;;;5.67;1.90;;;;;;;;;;4960943;28;20206;-80
2022/07/05 14:40:35;;;;;;;4.57;1.53;;;;;;;;;;4959736;28;20242;-82
2022/07/05 14:43:17;;;;;;;5.47;1.77;;;;;;;;;;4957052;28;20236;-82
2022/07/05 14:45:47;;;;;;;3.57;1.70;;;;;;;;;;4967340;28;20203;-82
2022/07/05 14:48:15;;;;;;;2.80;1.67;;;;;;;;;;4960861;28;20246;-81
2022/07/05 14:50:46;;;;;;;3.80;1.73;;;;;;;;;;4962941;28;20262;-81
2022/07/05 14:53:15;;;;;;;3.23;1.97;;;;;;;;;;4961365;28;20227;-82
2022/07/05 14:55:43;;;;;;;4.47;1.90;;;;;;;;;;4960757;28;20259;-82
2022/07/05 14:58:10;;;;;;;7.93;1.80;;;;;;;;;;4962396;28;20290;-83
2022/07/05 15:00:38;;;;;;;4.93;1.80;;;;;;;;;;4967890;28;20740;-82
2022/07/05 15:03:09;;;;;;;3.00;1.70;;;;;;;;;;4963495;28;20276;-82
2022/07/05 15:05:36;;;;;;;16.67;2.20;;;;;;;;;;4963751;28;20246;-82
2022/07/05 15:08:04;;;;;;;3.80;1.63;;;;;;;;;;4962863;28;20253;-82
2022/07/05 15:10:33;;;;;;;7.33;1.90;;;;;;;;;;4961854;28;20215;-82
2022/07/05 15:13:00;;;;;;;1.90;1.50;;;;;;;;;;4961283;28;20323;-83
2022/07/05 15:15:28;;;;;;;3.47;1.67;;;;;;;;;;4957720;28;20283;-83
2022/07/05 15:18:03;;;;;;;2.93;1.50;;;;;;;;;;4963834;28;20275;-84
2022/07/05 15:20:32;;;;;;;3.80;1.47;;;;;;;;;;4958242;28;20240;-82
2022/07/05 15:22:59;;;;;;;3.60;1.60;;;;;;;;;;4963003;28;20730;-82
2022/07/05 15:25:28;;;;;;;3.23;1.70;;;;;;;;;;4956812;28;20210;-82
2022/07/05 15:27:56;;;;;;;3.03;1.37;;;;;;;;;;4960557;28;20221;-82
2022/07/05 15:30:23;;;;;;;6.97;1.80;;;;;;;;;;4961353;28;20875;-82
2022/07/05 15:32:50;;;;;;;3.87;1.50;;;;;;;;;;4961406;28;20225;-82
2022/07/05 15:35:18;;;;;;;3.53;1.40;;;;;;;;;;4957008;28;20622;-81
2022/07/05 15:37:47;;;;;;;4.10;1.30;;;;;;;;;;4960379;28;20215;-82
2022/07/05 15:40:14;;;;;;;2.87;1.40;;;;;;;;;;4962127;28;20224;-84
2022/07/05 15:42:42;;;;;;;2.77;1.50;;;;;;;;;;4965956;28;20226;-84
2022/07/05 15:45:09;;;;;;;2.50;1.60;;;;;;;;;;4964727;28;20222;-82
2022/07/05 15:47:38;;;;;;;2.60;1.83;;;;;;;;;;4964138;28;20845;-83
2022/07/05 15:50:07;;;;;;;6.70;1.57;;;;;;;;;;4962925;28;20239;-82
2022/07/05 15:52:35;;;;;;;3.13;1.40;;;;;;;;;;4963500;28;20268;-81
2022/07/05 15:55:03;;;;;;;2.23;1.50;;;;;;;;;;4969569;28;20216;-82
2022/07/05 15:57:31;;;;;;;3.90;1.40;;;;;;;;;;4962877;28;20206;-82